This is the latest recevied weather packets stored in our database for station/object SQ7FJB-2. If no packets are shown the sender has not sent any weather packets the latest 10 day(s).
| Time | Temp. | Humidity | Pressure | Rain* | Wind** | Luminosity | Snow |
|---|---|---|---|---|---|---|---|
| 1777957215 | 16.11° C | 51% | 1009.4 hPa | 0 mm | - | - | - |
| 1777956603 | 14.44° C | 57% | 1009.4 hPa | 0 mm | - | - | - |
| 1777956002 | 11.67° C | 71% | 1009.4 hPa | 0 mm | - | - | - |
| 1777955402 | 11.11° C | 79% | 1009.3 hPa | 0 mm | - | - | - |
| 1777954790 | 10.56° C | 79% | 1009.3 hPa | 0 mm | - | - | - |
| 1777954190 | 9.44° C | 76% | 1009.2 hPa | 0 mm | - | - | - |
| 1777953577 | 8.89° C | 82% | 1009.4 hPa | 0 mm | - | - | - |
| 1777952965 | 8.89° C | 84% | 1009.4 hPa | 0 mm | - | - | - |
| 1777952365 | 8.89° C | 85% | 1009.5 hPa | 0 mm | - | - | - |
| 1777951753 | 8.89° C | 85% | 1009.5 hPa | 0 mm | - | - | - |
| 1777951152 | 8.89° C | 87% | 1009.5 hPa | 0 mm | - | - | - |
| 1777950552 | 8.89° C | 87% | 1009.6 hPa | 0 mm | - | - | - |
| 1777949952 | 8.89° C | 86% | 1009.6 hPa | 0 mm | - | - | - |
| 1777949340 | 9.44° C | 83% | 1009.5 hPa | 0 mm | - | - | - |
| 1777948739 | 8.33° C | 86% | 1009.6 hPa | 0 mm | - | - | - |
| 1777948140 | 8.33° C | 86% | 1009.6 hPa | 0 mm | - | - | - |
| 1777947527 | 8.33° C | 87% | 1009.7 hPa | 0 mm | - | - | - |
| 1777946927 | 8.89° C | 86% | 1009.8 hPa | 0 mm | - | - | - |
| 1777946315 | 8.33° C | 87% | 1009.7 hPa | 0 mm | - | - | - |
| 1777945703 | 8.33° C | 88% | 1009.9 hPa | 0 mm | - | - | - |
| 1777945102 | 8.33° C | 88% | 1010 hPa | 0 mm | - | - | - |
| 1777944502 | 8.33° C | 88% | 1009.9 hPa | 0 mm | - | - | - |
| 1777943902 | 8.33° C | 87% | 1010 hPa | 0 mm | - | - | - |
| 1777943290 | 8.33° C | 88% | 1010 hPa | 0 mm | - | - | - |
| 1777942689 | 8.33° C | 87% | 1010 hPa | 0 mm | - | - | - |
* Rain latest hour (hover to see other rain measurements)
** Current wind speed in m/s (hover to see current wind gust speed)